• Join FlightAware (Why Join?)
  • Login
  • US Flag 
11:16PM EDT


 

Airport Tracker/Info


-or-


 

Live Flight TrackerFlight Track Log ✈ SAS902 ✈ 22-Jul-2013 ✈ KEWR - EKCH / CPH

Flight Track Log - Related Links

Times and Time Zones

All times are in EDT time to prevent confusion due to time zone crossing. See the SAS902 flight status page for this flight to view local times or setup timezone preferences in your user account.

Time Position Orientation Groundspeed Altitude Reporting Facility
EDT Latitude Longitude Course Direction KTS MPH feet Rate Location/Type
12:39AM 40.6740 -74.1805 206° Southwest 162 186 400  Level FlightAware ADS-B
12:39AM 40.6693 -74.1836 207° Southwest 156 180 600 1,680 Climbing FlightAware ADS-B
12:39AM 40.6650 -74.1859 202° Southwest 151 174 800 1,980 Climbing FlightAware ADS-B
12:39AM 40.6592 -74.1865 184° South 148 170 1,100 1,800 Climbing FlightAware ADS-B
12:39AM 40.6556 -74.1859 173° South 145 167 1,200 1,320 Climbing FlightAware ADS-B
12:39AM 40.6530 -74.1859 180° South 147 169 1,300 660 Climbing FlightAware ADS-B
12:39AM 40.6500 -74.1864 187° South 152 175 1,300 660 Level FlightAware ADS-B
12:39AM 40.6474 -74.1876 199° South 157 181 1,400 720 Climbing FlightAware ADS-B
12:39AM 40.6445 -74.1897 209° Southwest 163 188 1,400  Level FlightAware ADS-B
12:39AM 40.6422 -74.1924 222° Southwest 170 196 1,400 840 Level FlightAware ADS-B
12:39AM 40.6405 -74.1949 228° Southwest 174 200 1,500 600 Climbing FlightAware ADS-B
12:40AM 40.6378 -74.2022 244° Southwest 182 209 1,500 480 Level FlightAware ADS-B
12:40AM 40.6371 -74.2078 261° West 194 223 1,600 660 Climbing FlightAware ADS-B
12:40AM 40.6372 -74.2126 272° West 200 230 1,600  Level FlightAware ADS-B
12:40AM 40.6383 -74.2188 283° West 207 238 1,600 720 Level FlightAware ADS-B
12:40AM 40.6395 -74.2224 294° West 212 244 1,700 720 Climbing FlightAware ADS-B
12:40AM 40.6421 -74.2278 302° West 217 250 1,700 660 Level FlightAware ADS-B
12:40AM 40.6447 -74.2314 314° West 221 254 1,800 1,020 Climbing FlightAware ADS-B
12:40AM 40.6691 -74.2447 338° Northwest 252 290 2,200 1,200 Climbing FlightAware ADS-B
12:41AM 40.6877 -74.2505 347° North 259 298 2,600 1,920 Climbing FlightAware ADS-B
12:41AM 40.7133 -74.2579 348° North 259 298 3,400 2,400 Climbing FlightAware ADS-B
12:41AM 40.7254 -74.2612 348° North 284 327 3,800 2,280 Climbing FlightAware ADS-B
12:41AM 40.7307 -74.2620 353° North 286 329 3,900 2,220 Climbing FlightAware ADS-B
12:41AM 40.7363 -74.2620 360° North 288 331 4,100 2,520 Climbing FlightAware ADS-B
12:41AM 40.7403 -74.2614 North 289 333 4,200 2,520 Climbing FlightAware ADS-B
12:41AM 40.7457 -74.2598 13° North 290 334 4,400 2,640 Climbing FlightAware ADS-B
12:42AM 40.7519 -74.2570 19° North 290 334 4,600 2,700 Climbing FlightAware ADS-B
12:42AM 40.7592 -74.2528 24° Northeast 290 334 4,900 2,520 Climbing FlightAware ADS-B
12:42AM 40.7775 -74.2410 26° Northeast 292 336 5,500 2,460 Climbing FlightAware ADS-B
12:42AM 40.7793 -74.2398 27° Northeast 292 336 5,600 2,400 Climbing FlightAware ADS-B
12:42AM 40.7889 -74.2334 27° Northeast 296 341 5,900 1,980 Climbing FlightAware ADS-B
12:42AM 40.7901 -74.2326 27° Northeast 296 341 5,900 1,980 Level FlightAware ADS-B
12:42AM 40.7926 -74.2308 29° Northeast 297 342 6,000 2,400 Climbing FlightAware ADS-B
12:42AM 40.7961 -74.2278 33° Northeast 299 344 6,100 1,980 Climbing FlightAware ADS-B
12:42AM 40.7994 -74.2243 39° Northeast 299 344 6,200 1,500 Climbing FlightAware ADS-B
12:42AM 40.8002 -74.2234 40° Northeast 299 344 6,200 2,400 Level FlightAware ADS-B
12:42AM 40.8039 -74.2182 47° Northeast 299 344 6,400 3,420 Climbing FlightAware ADS-B
12:42AM 40.8071 -74.2125 53° Northeast 298 343 6,600 3,000 Climbing FlightAware ADS-B
12:42AM 40.8105 -74.2059 56° Northeast 297 342 6,800 2,580 Climbing FlightAware ADS-B
12:43AM 40.8191 -74.1888 56° Northeast 299 344 7,300 2,220 Climbing FlightAware ADS-B
12:43AM 40.8224 -74.1821 57° Northeast 299 344 7,400 2,040 Climbing FlightAware ADS-B
12:43AM 40.8367 -74.1550 55° Northeast 301 346 8,100 2,220 Climbing FlightAware ADS-B
12:43AM 40.8423 -74.1448 54° Northeast 306 352 8,300 1,980 Climbing FlightAware ADS-B
12:43AM 40.8494 -74.1317 54° Northeast 311 358 8,600 2,400 Climbing FlightAware ADS-B
12:43AM 40.8550 -74.1214 54° Northeast 311 358 8,900 2,760 Climbing FlightAware ADS-B
12:43AM 40.8622 -74.1081 54° Northeast 312 359 9,300 2,160 Climbing FlightAware ADS-B
12:44AM 40.8706 -74.0929 54° Northeast 314 361 9,600 1,980 Climbing FlightAware ADS-B
12:44AM 40.8772 -74.0807 54° Northeast 315 362 9,900 1,980 Climbing FlightAware ADS-B
12:44AM 40.8964 -74.0453 54° Northeast 325 374 10,600 1,500 Climbing FlightAware ADS-B
12:44AM 40.9040 -74.0314 54° Northeast 335 386 10,700 780 Climbing FlightAware ADS-B
12:45AM 40.9244 -73.9938 54° Northeast 358 412 11,000 960 Climbing FlightAware ADS-B
12:45AM 40.9337 -73.9765 55° Northeast 364 419 11,200 1,320 Climbing FlightAware ADS-B
12:45AM 40.9553 -73.9366 54° Northeast 377 434 11,700 1,560 Climbing FlightAware ADS-B
12:45AM 40.9643 -73.9199 54° Northeast 379 436 12,000 2,160 Climbing FlightAware ADS-B
12:46AM 40.9913 -73.8699 54° Northeast 383 441 13,000 2,040 Climbing FlightAware ADS-B
12:46AM 41.0082 -73.8385 54° Northeast 386 444 13,500 1,980 Climbing FlightAware ADS-B
12:46AM 41.0225 -73.8121 54° Northeast 387 445 14,000 1,860 Climbing FlightAware ADS-B
12:47AM 41.0540 -73.7536 54° Northeast 396 456 14,900 1,740 Climbing FlightAware ADS-B
12:47AM 41.0875 -73.6911 55° Northeast 404 465 15,800 1,140 Climbing FlightAware ADS-B
12:48AM 41.1202 -73.6302 55° Northeast 408 470 16,100 660 Climbing FlightAware ADS-B
12:48AM 41.1537 -73.5675 55° Northeast 409 471 16,500 960 Climbing FlightAware ADS-B
12:49AM 41.1912 -73.4972 55° Northeast 414 476 17,200 1,500 Climbing FlightAware ADS-B
12:49AM 41.2140 -73.4563 53° Northeast 416 479 17,900 2,040 Climbing FlightAware ADS-B
12:49AM 41.2296 -73.4340 47° Northeast 417 480 18,300 1,800 Climbing FlightAware ADS-B
12:50AM 41.2724 -73.3809 43° Northeast 422 486 19,200 1,860 Climbing FlightAware ADS-B
12:50AM 41.3162 -73.3260 43° Northeast 422 486 20,200 1,860 Climbing FlightAware ADS-B
12:51AM 41.3597 -73.2715 43° Northeast 425 489 21,100 1,680 Climbing FlightAware ADS-B
12:51AM 41.4029 -73.2173 43° Northeast 431 496 21,900 1,320 Climbing FlightAware ADS-B
12:52AM 41.4475 -73.1613 43° Northeast 439 505 22,500 1,320 Climbing FlightAware ADS-B
12:53AM 41.5160 -73.0740 44° Northeast 446 513 23,600 1,380 Climbing FlightAware
12:53AM 41.5740 -72.9950 46° Northeast 448 516 24,600 960 Climbing FlightAware
12:54AM 41.6130 -72.9390 47° Northeast 448 516 24,800 1,200 Climbing FlightAware
12:54AM 41.6462 -72.8886 49° Northeast 457 526 25,600 900 Climbing FlightAware ADS-B
12:55AM 41.7250 -72.7750 47° Northeast 459 528 26,000 720 Climbing FlightAware
12:56AM 41.7860 -72.6870 47° Northeast 470 541 26,900 660 Climbing FlightAware
12:57AM 41.8330 -72.6190 47° Northeast 470 541 26,900  Level FlightAware
12:57AM 41.8930 -72.5320 47° Northeast 470 541 26,900  Level FlightAware
12:58AM 41.9380 -72.4670 47° Northeast 470 541 26,900 2,340 Level FlightAware
12:59AM 42.0490 -72.3020 48° Northeast 504 580 30,200 2,640 Climbing FlightAware
12:59AM 42.1160 -72.2040 47° Northeast 507 583 30,800 840 Climbing FlightAware
01:00AM 42.1860 -72.1000 48° Northeast 512 589 31,400 1,080 Climbing FlightAware
01:01AM 42.2450 -72.0140 47° Northeast 510 587 32,300 1,260 Climbing FlightAware
01:01AM 42.3060 -71.9220 48° Northeast 509 586 33,000 1,080 Climbing FlightAware
01:02AM 42.3720 -71.8250 47° Northeast 507 583 33,800 1,200 Climbing FlightAware
01:03AM 42.4340 -71.7310 48° Northeast 510 587 34,600 1,020 Climbing FlightAware
01:03AM 42.4970 -71.6360 48° Northeast 507 583 35,200 660 Climbing FlightAware
01:04AM 42.5690 -71.5290 48° Northeast 511 588 35,600 660 Climbing FlightAware
01:05AM 42.6320 -71.4340 48° Northeast 509 586 36,200 840 Climbing FlightAware
01:05AM 42.6860 -71.3510 48° Northeast 507 583 36,700 600 Climbing FlightAware
01:06AM 42.7490 -71.2560 48° Northeast 508 585 37,000 180 Climbing FlightAware
01:07AM 42.8110 -71.1610 48° Northeast 512 589 37,000  Level FlightAware
01:07AM 42.8840 -71.0490 48° Northeast 528 608 37,000  Level FlightAware
01:08AM 42.9510 -70.9470 48° Northeast 523 602 37,000  Level FlightAware
01:09AM 43.0180 -70.8430 49° Northeast 530 610 37,000  Level FlightAware
01:10AM 43.0900 -70.7320 48° Northeast 531 611 37,000  Level FlightAware
01:10AM 43.1480 -70.6410 49° Northeast 532 612 37,000  Level FlightAware
01:11AM 43.2140 -70.5390 48° Northeast 534 615 37,000  Level FlightAware
01:12AM 43.2790 -70.4370 49° Northeast 536 617 37,000  Level FlightAware
01:12AM 43.3470 -70.3310 49° Northeast 538 619 37,000  Level FlightAware
01:13AM 43.4450 -70.1770 49° Northeast 538 619 37,000  Level FlightAware
01:14AM 43.5130 -70.0690 49° Northeast 537 618 37,000  Level FlightAware
01:15AM 43.5840 -69.9570 49° Northeast 537 618 37,000  Level FlightAware
01:15AM 43.6360 -69.8720 50° Northeast 537 618 37,000  Level FlightAware
01:16AM 43.7060 -69.7600 49° Northeast 538 619 37,000  Level FlightAware
01:17AM 43.7710 -69.6560 49° Northeast 539 620 37,000  Level FlightAware
01:17AM 43.8310 -69.5600 49° Northeast 538 619 37,000  Level FlightAware
01:18AM 43.8950 -69.4560 49° Northeast 536 617 37,000  Level FlightAware
01:19AM 43.9700 -69.3350 49° Northeast 535 616 37,000  Level FlightAware
01:19AM 44.0160 -69.2590 50° Northeast 534 615 37,000  Level FlightAware
01:20AM 44.0980 -69.1250 50° Northeast 533 613 37,000  Level FlightAware
01:21AM 44.1950 -68.9660 50° Northeast 528 608 37,000  Level FlightAware
01:22AM 44.2690 -68.8430 50° Northeast 529 609 37,000  Level FlightAware
01:22AM 44.3300 -68.7430 50° Northeast 528 608 37,000  Level FlightAware
01:23AM 44.3960 -68.6320 50° Northeast 533 613 37,000  Level FlightAware
01:24AM 44.4570 -68.5300 50° Northeast 532 612 37,000  Level FlightAware
01:24AM 44.5220 -68.4210 50° Northeast 531 611 37,000  Level FlightAware
01:25AM 44.5830 -68.3200 50° Northeast 531 611 37,000  Level FlightAware
01:26AM 44.6480 -68.2090 51° Northeast 531 611 37,000  Level FlightAware
01:26AM 44.7020 -68.1180 50° Northeast 530 610 37,000  Level FlightAware
01:27AM 44.7710 -68.0000 50° Northeast 530 610 37,000  Level FlightAware
01:28AM 44.8340 -67.8930 50° Northeast 530 610 37,000  Level FlightAware
01:29AM 44.9050 -67.7700 51° Northeast 530 610 37,000  Level FlightAware
01:29AM 44.9680 -67.6620 50° Northeast 529 609 37,000  Level FlightAware
01:30AM 45.0370 -67.5420 51° Northeast 524 603 37,000  Level FlightAware
01:31AM 45.0980 -67.4370 51° Northeast 525 604 37,000  Level FlightAware
01:31AM 45.1530 -67.3410 51° Northeast 526 605 37,000  Level FlightAware
01:32AM 45.2220 -67.2200 51° Northeast 533 613 37,000  Level FlightAware
01:33AM 45.2850 -67.1100 51° Northeast 526 605 37,000  Level FlightAware
01:33AM 45.3380 -67.0170 51° Northeast 525 604 37,000  Level FlightAware
01:34AM 45.3990 -66.9080 51° Northeast 524 603 37,000  Level FlightAware
01:35AM 45.4670 -66.7870 51° Northeast 525 604 37,000  Level FlightAware
01:35AM 45.5220 -66.6900 51° Northeast 523 602 37,000  Level FlightAware
01:36AM 45.5820 -66.5820 52° Northeast 523 602 37,000  Level FlightAware
01:37AM 45.6430 -66.4720 52° Northeast 523 602 37,000  Level FlightAware
01:37AM 45.7100 -66.3500 52° Northeast 524 603 37,000  Level FlightAware
01:38AM 45.7710 -66.2410 51° Northeast 527 606 37,000  Level FlightAware
01:39AM 45.8410 -66.1140 52° Northeast 529 609 37,000  Level FlightAware
01:39AM 45.8930 -66.0180 52° Northeast 529 609 37,000  Level FlightAware
01:40AM 45.9540 -65.9050 52° Northeast 526 605 37,000  Level FlightAware
01:41AM 46.0220 -65.7820 51° Northeast 530 610 37,000  Level FlightAware
01:41AM 46.0690 -65.6940 52° Northeast 530 610 37,000  Level FlightAware
01:42AM 46.1450 -65.5530 52° Northeast 528 608 37,000  Level FlightAware
01:43AM 46.1950 -65.4610 52° Northeast 528 608 37,000  Level FlightAware
01:43AM 46.2560 -65.3480 52° Northeast 528 608 37,000  Level FlightAware
01:44AM 46.3020 -65.2620 52° Northeast 528 608 37,000  Level FlightAware
01:45AM 46.3490 -65.1750 52° Northeast 528 608 37,000  Level FlightAware
01:45AM 46.3950 -65.0890 52° Northeast 528 608 37,000  Level FlightAware
01:46AM 46.4580 -64.9730 52° Northeast 528 608 37,000  Level FlightAware
01:47AM 46.5040 -64.8880 52° Northeast 528 608 37,000  Level FlightAware
01:48AM 46.5650 -64.7730 52° Northeast 528 608 37,000  Level FlightAware
01:48AM 46.6110 -64.6880 52° Northeast 528 608 37,000  Level FlightAware
01:49AM 46.6730 -64.5730 52° Northeast 528 608 37,000  Level FlightAware
01:50AM 46.7190 -64.4870 52° Northeast 528 608 37,000  Level FlightAware
01:50AM 46.7800 -64.3730 52° Northeast 528 608 37,000  Level FlightAware
01:51AM 46.8270 -64.2840 52° Northeast 528 608 37,000  Level FlightAware
01:52AM 46.8900 -64.1670 52° Northeast 528 608 37,000  Level FlightAware
01:53AM 47.1167 -63.6667 52° Northeast 510 587 37,000  Level Moncton Center
01:54AM 47.2000 -63.5167 51° Northeast 510 587 37,000  Level Moncton Center
01:55AM 47.2833 -63.3333 56° Northeast 510 587 37,000  Level Moncton Center
01:56AM 47.3667 -63.1667 54° Northeast 510 587 37,000  Level Moncton Center
01:57AM 47.4333 -62.9833 62° Northeast 510 587 37,000  Level Moncton Center
01:58AM 47.5167 -62.8167 53° Northeast 510 587 37,000  Level Moncton Center
01:59AM 47.6000 -62.6333 56° Northeast 510 587 37,000  Level Moncton Center
02:00AM 47.6833 -62.4833 50° Northeast 510 587 37,000  Level Moncton Center
02:01AM 47.7667 -62.3000 56° Northeast 510 587 37,000  Level Moncton Center
02:02AM 47.8667 -62.1333 48° Northeast 510 587 37,000  Level Moncton Center
02:03AM 47.9333 -61.9500 61° Northeast 510 587 37,000  Level Moncton Center
02:04AM 48.0167 -61.7667 56° Northeast 510 587 37,000  Level Moncton Center
02:05AM 48.1000 -61.5833 56° Northeast 510 587 37,000  Level Moncton Center
02:06AM 48.1833 -61.4333 50° Northeast 510 587 37,000  Level Moncton Center
02:07AM 48.2667 -61.2500 56° Northeast 510 587 37,000  Level Moncton Center
02:08AM 48.3333 -61.0667 61° Northeast 510 587 37,000  Level Moncton Center
02:09AM 48.4167 -60.9167 50° Northeast 510 587 37,000  Level Moncton Center
02:10AM 48.5167 -60.7333 50° Northeast 510 587 37,000  Level Moncton Center
02:16AM 48.9480 -59.7740 50° Northeast 513 590 37,000  Level FlightAware
02:16AM 48.9880 -59.6820 56° Northeast 513 590 37,000  Level FlightAware
02:17AM 49.0420 -59.5600 56° Northeast 513 590 37,000  Level FlightAware
02:18AM 49.1230 -59.3670 57° Northeast 511 588 37,000  Level FlightAware
02:19AM 49.1800 -59.2340 57° Northeast 512 589 37,000  Level FlightAware
02:19AM 49.2320 -59.1120 57° Northeast 512 589 37,000  Level FlightAware
02:20AM 49.2840 -58.9870 57° Northeast 512 589 37,000  Level FlightAware
02:21AM 49.3550 -58.8190 57° Northeast 512 589 37,000  Level FlightAware
02:22AM 49.4090 -58.6900 57° Northeast 514 592 37,000  Level FlightAware
02:22AM 49.4640 -58.5440 60° Northeast 522 601 37,000  Level FlightAware
02:23AM 49.5080 -58.4140 62° Northeast 521 600 37,000  Level FlightAware
02:24AM 49.5580 -58.2690 62° Northeast 520 598 37,000  Level FlightAware
02:25AM 49.6050 -58.1350 62° Northeast 520 598 37,000  Level FlightAware
02:25AM 49.6490 -58.0060 62° Northeast 522 601 37,000  Level FlightAware
02:26AM 49.6990 -57.8610 62° Northeast 522 601 37,000  Level FlightAware
02:27AM 49.7460 -57.7240 62° Northeast 524 603 37,000  Level FlightAware
02:27AM 49.7950 -57.5780 62° Northeast 526 605 37,000  Level FlightAware
02:28AM 49.8410 -57.4430 62° Northeast 526 605 37,000  Level FlightAware
02:29AM 49.8860 -57.3100 62° Northeast 528 608 37,000  Level FlightAware
02:29AM 49.9340 -57.1660 63° Northeast 530 610 37,000  Level FlightAware
02:30AM 49.9830 -57.0160 63° Northeast 531 611 37,000  Level FlightAware
02:31AM 50.0260 -56.8870 63° Northeast 532 612 37,000  Level FlightAware
02:31AM 50.0710 -56.7510 63° Northeast 534 615 37,000  Level FlightAware
02:32AM 50.1160 -56.6140 63° Northeast 535 616 37,000  Level FlightAware
02:33AM 50.1600 -56.4760 63° Northeast 536 617 37,000  Level FlightAware
02:33AM 50.2000 -56.3540 63° Northeast 534 615 37,000  Level FlightAware
02:34AM 50.2430 -56.2190 63° Northeast 533 613 37,000  Level FlightAware
02:35AM 50.2900 -56.0720 63° Northeast 530 610 37,000  Level FlightAware
02:36AM 50.3420 -55.9070 64° Northeast 530 610 37,000  Level FlightAware
02:36AM 50.3850 -55.7720 63° Northeast 529 609 37,000  Level FlightAware
02:37AM 50.4330 -55.6200 64° Northeast 532 612 37,000  Level FlightAware
02:38AM 50.4770 -55.4790 64° Northeast 532 612 37,000  Level FlightAware
02:38AM 50.5070 -55.3830 64° Northeast 532 612 37,000  Level FlightAware
02:39AM 50.5560 -55.2230 64° Northeast 535 616 37,000  Level FlightAware
02:40AM 50.6060 -55.0610 64° Northeast 532 612 37,000  Level FlightAware
02:40AM 50.6420 -54.9410 65° Northeast 531 611 37,000  Level FlightAware
02:41AM 50.6840 -54.8060 64° Northeast 533 613 37,000  Level FlightAware
02:42AM 50.7330 -54.6420 65° Northeast 534 615 37,000  Level FlightAware
02:42AM 50.7650 -54.5370 64° Northeast 535 616 37,000  Level FlightAware
02:43AM 50.8100 -54.3850 65° Northeast 533 613 37,000  Level FlightAware
02:43AM 50.8540 -54.2380 65° Northeast 534 615 37,000  Level FlightAware
02:44AM 50.8970 -54.0910 65° Northeast 537 618 37,000 420 Level FlightAware
02:45AM 50.9370 -53.9550 65° Northeast 536 617 37,600 600 Climbing FlightAware
02:46AM 50.9960 -53.7500 65° Northeast 540 621 38,000 300 Climbing FlightAware
02:47AM 51.0520 -53.5570 65° Northeast 542 624 38,200 420 Climbing FlightAware
02:47AM 51.0960 -53.4040 65° Northeast 542 624 38,700 540 Climbing FlightAware
02:48AM 51.1370 -53.2610 65° Northeast 544 626 38,900 180 Climbing FlightAware
02:49AM 51.1770 -53.1180 66° East 539 620 39,000 60 Climbing FlightAware
02:49AM 51.2130 -52.9910 66° East 537 618 39,000  Level FlightAware
02:50AM 51.2540 -52.8430 66° East 537 618 39,000  Level FlightAware
02:51AM 51.3080 -52.6500 66° East 533 613 39,000  Level FlightAware
02:52AM 51.3400 -52.5310 67° East 532 612 39,000  Level FlightAware
02:52AM 51.3690 -52.4200 67° East 532 612 39,000  Level FlightAware
02:53AM 51.4090 -52.2680 67° East 532 612 39,000  Level FlightAware
02:54AM 51.4390 -52.1570 67° East 532 612 39,000  Level FlightAware
02:54AM 51.5000 -51.9460 65° Northeast 539 620 39,000  Level FlightAware
02:55AM 51.5310 -51.8340 66° East 539 620 39,000  Level FlightAware
02:56AM 51.5710 -51.6910 66° East 539 620 39,000  Level FlightAware
02:56AM 51.6030 -51.5760 66° East 539 620 39,000  Level FlightAware
02:57AM 51.6440 -51.4260 66° East 539 620 39,000  Level FlightAware
02:58AM 51.6750 -51.3130 66° East 539 620 39,000  Level FlightAware
02:58AM 51.7160 -51.1630 66° East 539 620 39,000  Level FlightAware
02:59AM 51.7590 -51.0100 66° East 539 620 39,000  Level FlightAware
03:00AM 51.7900 -50.8980 66° East 539 620 39,000  Level FlightAware
03:01AM 51.8310 -50.7470 66° East 539 620 39,000  Level FlightAware
03:01AM 51.8620 -50.6340 66° East 539 620 39,000  Level FlightAware
03:02AM 51.8930 -50.5210 66° East 539 620 39,000  Level FlightAware
03:03AM 51.9360 -50.3640 66° East 539 620 39,000  Level FlightAware
03:03AM 51.9670 -50.2510 66° East 539 620 39,000  Level FlightAware
03:06AM 52.0738 -49.7976 59° Northeast  Level FlightAware Approximate
03:07AM 52.1409 -49.6120 59° Northeast  Level FlightAware Approximate
03:08AM 52.2078 -49.4257 60° Northeast  Level FlightAware Approximate
03:09AM 52.2744 -49.2389 60° Northeast  Level FlightAware Approximate
03:10AM 52.3406 -49.0516 60° Northeast  Level FlightAware Approximate
03:11AM 52.4066 -48.8636 60° Northeast  Level FlightAware Approximate
03:12AM 52.4723 -48.6751 60° Northeast  Level FlightAware Approximate
03:13AM 52.5377 -48.4861 60° Northeast  Level FlightAware Approximate
03:14AM 52.6028 -48.2965 60° Northeast  Level FlightAware Approximate
03:15AM 52.6675 -48.1063 61° Northeast  Level FlightAware Approximate
03:16AM 52.7320 -47.9156 61° Northeast  Level FlightAware Approximate
03:17AM 52.7962 -47.7243 61° Northeast  Level FlightAware Approximate
03:18AM 52.8601 -47.5324 61° Northeast  Level FlightAware Approximate
03:19AM 52.9236 -47.3400 61° Northeast  Level FlightAware Approximate
03:20AM 52.9868 -47.1469 61° Northeast  Level FlightAware Approximate
03:21AM 53.0498 -46.9534 62° Northeast  Level FlightAware Approximate
03:22AM 53.1124 -46.7593 62° Northeast  Level FlightAware Approximate
03:23AM 53.1747 -46.5646 62° Northeast  Level FlightAware Approximate
03:24AM 53.2366 -46.3693 62° Northeast  Level FlightAware Approximate
03:25AM 53.2983 -46.1735 62° Northeast  Level FlightAware Approximate
03:26AM 53.3596 -45.9771 62° Northeast  Level FlightAware Approximate
03:27AM 53.4206 -45.7802 62° Northeast  Level FlightAware Approximate
03:28AM 53.4813 -45.5827 63° Northeast  Level FlightAware Approximate
03:29AM 53.5417 -45.3846 63° Northeast  Level FlightAware Approximate
03:30AM 53.6017 -45.1860 63° Northeast  Level FlightAware Approximate
03:31AM 53.6614 -44.9868 63° Northeast  Level FlightAware Approximate
03:32AM 53.7208 -44.7870 63° Northeast  Level FlightAware Approximate
03:33AM 53.7798 -44.5867 63° Northeast  Level FlightAware Approximate
03:34AM 53.8385 -44.3858 64° Northeast  Level FlightAware Approximate
03:35AM 53.8969 -44.1843 64° Northeast  Level FlightAware Approximate
03:36AM 53.9549 -43.9823 64° Northeast  Level FlightAware Approximate
03:37AM 54.0126 -43.7797 64° Northeast  Level FlightAware Approximate
03:38AM 54.0699 -43.5766 64° Northeast  Level FlightAware Approximate
03:39AM 54.1269 -43.3729 64° Northeast  Level FlightAware Approximate
03:40AM 54.1835 -43.1686 65° Northeast  Level FlightAware Approximate
03:41AM 54.2398 -42.9638 65° Northeast  Level FlightAware Approximate
03:42AM 54.2958 -42.7584 65° Northeast  Level FlightAware Approximate
03:43AM 54.3514 -42.5525 65° Northeast  Level FlightAware Approximate
03:44AM 54.4067 -42.3460 65° Northeast  Level FlightAware Approximate
03:45AM 54.4616 -42.1389 65° Northeast  Level FlightAware Approximate
03:46AM 54.5161 -41.9313 66° East  Level FlightAware Approximate
03:47AM 54.5703 -41.7232 66° East  Level FlightAware Approximate
03:48AM 54.6242 -41.5145 66° East  Level FlightAware Approximate
03:49AM 54.6776 -41.3052 66° East  Level FlightAware Approximate
03:50AM 54.7308 -41.0954 66° East  Level FlightAware Approximate
03:51AM 54.7835 -40.8850 66° East  Level FlightAware Approximate
03:52AM 54.8359 -40.6741 67° East  Level FlightAware Approximate
03:53AM 54.8879 -40.4627 67° East  Level FlightAware Approximate
03:54AM 54.9396 -40.2507 67° East  Level FlightAware Approximate
03:55AM 54.9908 -40.0382 67° East  Level FlightAware Approximate
03:56AM 55.0585 -39.8403 57° Northeast  Level FlightAware Approximate
03:57AM 55.1295 -39.6451 57° Northeast  Level FlightAware Approximate
03:58AM 55.2001 -39.4491 58° Northeast  Level FlightAware Approximate
03:59AM 55.2704 -39.2525 58° Northeast  Level FlightAware Approximate
04:00AM 55.3405 -39.0552 58° Northeast  Level FlightAware Approximate
04:01AM 55.4102 -38.8572 58° Northeast  Level FlightAware Approximate
04:02AM 55.4795 -38.6585 58° Northeast  Level FlightAware Approximate
04:03AM 55.5486 -38.4591 58° Northeast  Level FlightAware Approximate
04:04AM 55.6173 -38.2590 59° Northeast  Level FlightAware Approximate
04:05AM 55.6857 -38.0582 59° Northeast  Level FlightAware Approximate
04:06AM 55.7538 -37.8566 59° Northeast  Level FlightAware Approximate
04:07AM 55.8216 -37.6544 59° Northeast  Level FlightAware Approximate
04:08AM 55.8890 -37.4515 59° Northeast  Level FlightAware Approximate
04:09AM 55.9561 -37.2479 59° Northeast  Level FlightAware Approximate
04:10AM 56.0228 -37.0435 60° Northeast  Level FlightAware Approximate
04:11AM 56.0892 -36.8385 60° Northeast  Level FlightAware Approximate
04:12AM 56.1553 -36.6328 60° Northeast  Level FlightAware Approximate
04:13AM 56.2210 -36.4263 60° Northeast  Level FlightAware Approximate
04:14AM 56.2864 -36.2192 60° Northeast  Level FlightAware Approximate
04:15AM 56.3514 -36.0113 60° Northeast  Level FlightAware Approximate
04:16AM 56.4161 -35.8027 61° Northeast  Level FlightAware Approximate
04:17AM 56.4804 -35.5934 61° Northeast  Level FlightAware Approximate
04:18AM 56.5444 -35.3835 61° Northeast  Level FlightAware Approximate
04:19AM 56.6080 -35.1728 61° Northeast  Level FlightAware Approximate
04:20AM 56.6712 -34.9613 61° Northeast  Level FlightAware Approximate
04:21AM 56.7341 -34.7492 62° Northeast  Level FlightAware Approximate
04:22AM 56.7967 -34.5364 62° Northeast  Level FlightAware Approximate
04:23AM 56.8589 -34.3229 62° Northeast  Level FlightAware Approximate
04:24AM 56.9207 -34.1086 62° Northeast  Level FlightAware Approximate
04:25AM 56.9821 -33.8937 62° Northeast  Level FlightAware Approximate
04:26AM 57.0432 -33.6780 62° Northeast  Level FlightAware Approximate
04:27AM 57.1039 -33.4617 63° Northeast  Level FlightAware Approximate
04:28AM 57.1642 -33.2446 63° Northeast  Level FlightAware Approximate
04:29AM 57.2242 -33.0268 63° Northeast  Level FlightAware Approximate
04:30AM 57.2838 -32.8083 63° Northeast  Level FlightAware Approximate
04:31AM 57.3430 -32.5891 63° Northeast  Level FlightAware Approximate
04:32AM 57.4018 -32.3692 64° Northeast  Level FlightAware Approximate
04:33AM 57.4602 -32.1486 64° Northeast  Level FlightAware Approximate
04:34AM 57.5182 -31.9273 64° Northeast  Level FlightAware Approximate
04:35AM 57.5759 -31.7053 64° Northeast  Level FlightAware Approximate
04:36AM 57.6332 -31.4826 64° Northeast  Level FlightAware Approximate
04:37AM 57.6900 -31.2591 64° Northeast  Level FlightAware Approximate
04:38AM 57.7465 -31.0350 65° Northeast  Level FlightAware Approximate
04:39AM 57.8026 -30.8102 65° Northeast  Level FlightAware Approximate
04:40AM 57.8583 -30.5847 65° Northeast  Level FlightAware Approximate
04:41AM 57.9136 -30.3585 65° Northeast  Level FlightAware Approximate
04:42AM 57.9684 -30.1316 65° Northeast  Level FlightAware Approximate
04:43AM 58.0238 -29.9048 65° Northeast  Level FlightAware Approximate
04:44AM 58.0801 -29.6784 65° Northeast  Level FlightAware Approximate
04:45AM 58.1359 -29.4513 65° Northeast  Level FlightAware Approximate
04:46AM 58.1914 -29.2234 65° Northeast  Level FlightAware Approximate
04:47AM 58.2464 -28.9949 65° Northeast  Level FlightAware Approximate
04:48AM 58.3010 -28.7656 66° East  Level FlightAware Approximate
04:49AM 58.3553 -28.5357 66° East  Level FlightAware Approximate
04:50AM 58.4091 -28.3050 66° East  Level FlightAware Approximate
04:51AM 58.4625 -28.0737 66° East  Level FlightAware Approximate
04:52AM 58.5154 -27.8416 66° East  Level FlightAware Approximate
04:53AM 58.5680 -27.6089 67° East  Level FlightAware Approximate
04:54AM 58.6201 -27.3754 67° East  Level FlightAware Approximate
04:55AM 58.6718 -27.1413 67° East  Level FlightAware Approximate
04:56AM 58.7231 -26.9064 67° East  Level FlightAware Approximate
04:57AM 58.7740 -26.6709 67° East  Level FlightAware Approximate
04:58AM 58.8244 -26.4347 68° East  Level FlightAware Approximate
04:59AM 58.8744 -26.1978 68° East  Level FlightAware Approximate
05:00AM 58.9239 -25.9602 68° East  Level FlightAware Approximate
05:01AM 58.9730 -25.7219 68° East  Level FlightAware Approximate
05:02AM 59.0217 -25.4830 68° East  Level FlightAware Approximate
05:03AM 59.0700 -25.2433 69° East  Level FlightAware Approximate
05:04AM 59.1177 -25.0030 69° East  Level FlightAware Approximate
05:05AM 59.1651 -24.7621 69° East  Level FlightAware Approximate
05:06AM 59.2120 -24.5205 69° East  Level FlightAware Approximate
05:07AM 59.2584 -24.2782 69° East  Level FlightAware Approximate
05:08AM 59.3045 -24.0352 70° East  Level FlightAware Approximate
05:09AM 59.3500 -23.7917 70° East  Level FlightAware Approximate
05:10AM 59.3951 -23.5474 70° East  Level FlightAware Approximate
05:11AM 59.4397 -23.3025 70° East  Level FlightAware Approximate
05:12AM 59.4839 -23.0570 70° East  Level FlightAware Approximate
05:13AM 59.5283 -22.8112 70° East  Level FlightAware Approximate
05:14AM 59.5725 -22.5651 70° East  Level FlightAware Approximate
05:15AM 59.6163 -22.3183 71° East  Level FlightAware Approximate
05:16AM 59.6596 -22.0709 71° East  Level FlightAware Approximate
05:17AM 59.7025 -21.8229 71° East  Level FlightAware Approximate
05:18AM 59.7449 -21.5742 71° East  Level FlightAware Approximate
05:19AM 59.7868 -21.3249 71° East  Level FlightAware Approximate
05:20AM 59.8283 -21.0749 72° East  Level FlightAware Approximate
05:21AM 59.8692 -20.8244 72° East  Level FlightAware Approximate
05:22AM 59.9097 -20.5732 72° East  Level FlightAware Approximate
05:23AM 59.9497 -20.3214 72° East  Level FlightAware Approximate
05:24AM 59.9893 -20.0691 73° East  Level FlightAware Approximate
05:25AM 60.0002 -19.8076 90° East  Level FlightAware Approximate
05:26AM 59.9999 -19.5429 90° East  Level FlightAware Approximate
05:27AM 59.9991 -19.2782 90° East  Level FlightAware Approximate
05:28AM 59.9978 -19.0135 90° East  Level FlightAware Approximate
05:29AM 59.9960 -18.7489 91° East  Level FlightAware Approximate
05:30AM 59.9937 -18.4842 91° East  Level FlightAware Approximate
05:31AM 59.9908 -18.2197 91° East  Level FlightAware Approximate
05:32AM 59.9874 -17.9551 91° East  Level FlightAware Approximate
05:33AM 59.9834 -17.6907 92° East  Level FlightAware Approximate
05:34AM 59.9790 -17.4263 92° East  Level FlightAware Approximate
05:35AM 59.9740 -17.1619 92° East  Level FlightAware Approximate
05:36AM 59.9684 -16.8977 92° East  Level FlightAware Approximate
05:37AM 59.9624 -16.6336 93° East  Level FlightAware Approximate
05:38AM 59.9558 -16.3695 93° East  Level FlightAware Approximate
05:39AM 59.9487 -16.1056 93° East  Level FlightAware Approximate
05:40AM 59.9411 -15.8417 93° East  Level FlightAware Approximate
05:41AM 59.9329 -15.5780 93° East  Level FlightAware Approximate
05:42AM 59.9242 -15.3145 94° East  Level FlightAware Approximate
05:43AM 59.9150 -15.0511 94° East  Level FlightAware Approximate
05:44AM 59.9053 -14.7878 94° East  Level FlightAware Approximate
05:45AM 59.8950 -14.5247 94° East  Level FlightAware Approximate
05:46AM 59.8842 -14.2617 95° East  Level FlightAware Approximate
05:47AM 59.8729 -13.9990 95° East  Level FlightAware Approximate
05:47AM 60.0430 -11.9700 95° East 472 543 39,000  Level FlightAware
05:48AM 59.8611 -13.7364 95° East  Level FlightAware Approximate
05:48AM 60.0410 -11.8250 92° East 472 543 39,000  Level FlightAware
05:48AM 60.0370 -11.6470 92° East 472 543 39,000  Level FlightAware
05:49AM 60.0350 -11.5130 92° East 472 543 39,000  Level FlightAware
05:50AM 60.0260 -11.2890 95° East 474 545 39,000  Level FlightAware
05:50AM 60.0210 -11.0670 92° East 474 545 39,000  Level FlightAware
05:51AM 60.0130 -10.8440 94° East 472 543 39,000  Level FlightAware
05:52AM 60.0070 -10.6710 94° East 474 545 39,000  Level FlightAware
05:53AM 60.0010 -10.4860 94° East 475 547 39,000  Level FlightAware
05:53AM 59.9940 -10.2970 94° East 475 547 39,000  Level FlightAware
05:54AM 59.9880 -10.1390 94° East 475 547 39,000  Level FlightAware
05:55AM 59.9800 -9.9470 95° East 470 541 39,000  Level FlightAware
05:55AM 59.9760 -9.8100 93° East 468 539 39,000  Level FlightAware
05:56AM 59.9690 -9.6230 94° East 468 539 39,000  Level FlightAware
05:57AM 59.9620 -9.4330 94° East 468 539 39,000  Level FlightAware
05:57AM 59.9550 -9.2540 94° East 469 540 39,000  Level FlightAware
05:58AM 59.9449 -9.0098 94° East 472 543 39,000  Level FlightAware UK
05:58AM 59.9470 -9.0560 94° East 469 540 39,000  Level FlightAware
05:59AM 59.9395 -8.8819 94° East 474 545 39,000  Level FlightAware UK
05:59AM 59.9334 -8.7551 95° East 470 541 39,000  Level FlightAware UK
05:59AM 59.9340 -8.7460 95° East 469 540 39,000  Level FlightAware
06:00AM 59.9270 -8.5830 95° East 470 541 39,000  Level FlightAware
06:01AM 59.9170 -8.3770 95° East 472 543 39,000  Level FlightAware
06:01AM 59.9158 -8.3389 95° East 476 548 39,000  Level FlightAware UK
06:01AM 59.9082 -8.1836 95° East 470 541 39,000  Level FlightAware UK
06:02AM 59.9080 -8.1850 95° East 470 541 39,000  Level FlightAware
06:02AM 59.8990 -8.0130 96° East 473 544 39,000  Level FlightAware
06:03AM 59.8900 -7.8340 96° East 474 545 39,000  Level FlightAware
06:04AM 59.8800 -7.6310 96° East 474 545 39,000  Level FlightAware
06:04AM 59.8792 -7.6131 96° East 474 545 39,000  Level FlightAware UK
06:04AM 59.8722 -7.4834 96° East 474 545 39,000  Level FlightAware UK
06:04AM 59.8710 -7.4570 96° East 472 543 39,000  Level FlightAware
06:05AM 59.8600 -7.2660 96° East 470 541 39,000  Level FlightAware
06:06AM 59.8520 -7.1130 96° East 472 543 39,000  Level FlightAware
06:06AM 59.8420 -6.9450 97° East 473 544 39,000  Level FlightAware
06:07AM 59.8290 -6.7260 97° East 473 544 39,000  Level FlightAware
06:08AM 59.8190 -6.5610 97° East 473 544 39,000  Level FlightAware
06:08AM 59.8080 -6.3860 97° East 473 544 39,000  Level FlightAware
06:09AM 59.7978 -6.2174 97° East 472 543 39,000  Level FlightAware UK
06:09AM 59.7960 -6.1920 97° East 474 545 39,000  Level FlightAware
06:10AM 59.7860 -6.0370 97° East 474 545 39,000  Level FlightAware
06:10AM 59.7750 -5.8670 97° East 476 548 39,000  Level FlightAware
06:11AM 59.7630 -5.6910 98° East 476 548 39,000  Level FlightAware
06:12AM 59.7540 -5.5540 97° East 475 547 39,000  Level FlightAware
06:12AM 59.7410 -5.3680 98° East 475 547 39,000  Level FlightAware
06:13AM 59.7261 -5.1575 98° East 472 543 39,000  Level FlightAware UK
06:13AM 59.7290 -5.1980 98° East 476 548 39,000  Level FlightAware
06:14AM 59.7120 -4.9690 98° East 477 549 39,000  Level FlightAware
06:15AM 59.6980 -4.7740 98° East 476 548 39,000  Level FlightAware
06:15AM 59.6870 -4.6370 99° East 476 548 39,000  Level FlightAware
06:16AM 59.6737 -4.4595 99° East 470 541 39,000  Level FlightAware UK
06:16AM 59.6740 -4.4630 99° East 475 547 39,000  Level FlightAware
06:17AM 59.6590 -4.2740 99° East 475 547 39,000  Level FlightAware
06:17AM 59.6500 -4.1590 99° East 476 548 39,000  Level FlightAware
06:18AM 59.6326 -3.9456 99° East 470 541 39,000  Level FlightAware UK
06:18AM 59.6320 -3.9320 99° East 476 548 39,000  Level FlightAware
06:19AM 59.6170 -3.7500 99° East 476 548 39,000  Level FlightAware
06:19AM 59.6030 -3.5840 99° East 475 547 39,000  Level FlightAware
06:20AM 59.5820 -3.3450 100° East 477 549 39,000  Level FlightAware
06:21AM 59.5670 -3.1710 100° East 479 551 39,000  Level FlightAware
06:22AM 59.5500 -2.9810 100° East 480 552 39,000  Level FlightAware
06:22AM 59.5390 -2.8580 100° East 479 551 39,000  Level FlightAware
06:23AM 59.5208 -2.6590 100° East 474 545 39,000  Level FlightAware UK
06:23AM 59.5210 -2.6580 100° East 477 549 39,000  Level FlightAware
06:23AM 59.5067 -2.5062 100° East 472 543 39,000  Level FlightAware UK
06:24AM 59.5050 -2.4900 100° East 476 548 39,000  Level FlightAware
06:24AM 59.4960 -2.3860 100° East 476 548 39,000  Level FlightAware
06:25AM 59.4790 -2.2060 100° East 477 549 39,000  Level FlightAware
06:26AM 59.4600 -2.0130 101° East 478 550 39,000  Level FlightAware
06:26AM 59.4440 -1.8530 101° East 478 550 39,000  Level FlightAware
06:27AM 59.4260 -1.6740 101° East 480 552 39,000  Level FlightAware
06:27AM 59.4199 -1.6114 101° East 476 548 39,000  Level FlightAware UK
06:28AM 59.4042 -1.4572 101° East 476 548 39,000  Level FlightAware UK
06:28AM 59.4080 -1.4880 101° East 479 551 39,000  Level FlightAware
06:29AM 59.3781 -1.2023 101° East 474 545 39,000  Level FlightAware UK
06:29AM 59.3840 -1.2570 101° East 477 549 39,000  Level FlightAware
06:29AM 59.3648 -1.0755 101° East 472 543 39,000  Level FlightAware UK
06:29AM 59.3670 -1.0910 101° East 477 549 39,000  Level FlightAware
06:30AM 59.3510 -0.9410 102° East 477 549 39,000  Level FlightAware
06:31AM 59.3310 -0.7600 102° East 478 550 39,000  Level FlightAware
06:31AM 59.3180 -0.6310 102° East 477 549 39,000  Level FlightAware
06:31AM 59.3107 -0.5683 102° East 474 545 39,000  Level FlightAware UK
06:32AM 59.2910 -0.3922 102° East 476 548 39,000  Level FlightAware UK
06:32AM 59.2980 -0.4570 102° East 478 550 39,000  Level FlightAware
06:32AM 59.2741 -0.2397 102° East 476 548 39,000  Level FlightAware UK
06:33AM 59.2710 -0.2120 102° East 476 548 39,000  Level FlightAware
06:33AM 59.2520 -0.0400 102° East 475 547 39,000  Level FlightAware
06:34AM 59.2350 0.1040 103° East 473 544 39,000  Level FlightAware
06:34AM 59.2165 0.2646 103° East 472 543 39,000  Level FlightAware UK
06:35AM 59.2100 0.3210 103° East 475 547 39,000  Level FlightAware
06:35AM 59.1930 0.4660 103° East 475 547 39,000  Level FlightAware
06:36AM 59.1680 0.6730 103° East 476 548 39,000  Level FlightAware
06:37AM 59.1481 0.8421 103° East 474 545 39,000  Level FlightAware UK
06:37AM 59.1480 0.8380 103° East 479 551 39,000  Level FlightAware
06:37AM 59.1296 0.9930 103° East 472 543 39,000  Level FlightAware UK
06:37AM 59.1290 0.9940 103° East 480 552 39,000  Level FlightAware
06:38AM 59.1050 1.1910 103° East 480 552 39,000  Level FlightAware
06:39AM 59.0765 1.4209 103° East 474 545 39,000  Level FlightAware UK
06:39AM 59.0760 1.4260 103° East 479 551 39,000  Level FlightAware
06:40AM 59.0572 1.5718 103° East 474 545 39,000  Level FlightAware UK
06:40AM 59.0520 1.6130 103° East 479 551 39,000  Level FlightAware
06:41AM 59.0160 1.7890 112° Southeast 477 549 39,000  Level FlightAware
06:41AM 58.9750 1.9400 118° Southeast 476 548 39,000  Level FlightAware
06:42AM 58.9280 2.1070 119° Southeast 477 549 39,000  Level FlightAware
06:43AM 58.8913 2.2387 119° Southeast 472 543 39,000  Level FlightAware UK
06:43AM 58.8870 2.2550 119° Southeast 479 551 39,000  Level FlightAware
06:43AM 58.8490 2.3910 118° Southeast 481 554 39,000  Level FlightAware
06:44AM 58.8070 2.5400 119° Southeast 481 554 39,000  Level FlightAware
06:45AM 58.7580 2.7140 118° Southeast 482 555 39,000  Level FlightAware
06:45AM 58.7240 2.8350 118° Southeast 481 554 39,000  Level FlightAware
06:46AM 58.6770 3.0000 119° Southeast 481 554 39,000  Level FlightAware
06:47AM 58.6350 3.1480 119° Southeast 482 555 39,000  Level FlightAware
06:47AM 58.5912 3.2988 119° Southeast 472 543 39,000  Level FlightAware UK
06:47AM 58.5890 3.3060 119° Southeast 483 556 39,000  Level FlightAware
06:48AM 58.5523 3.4331 119° Southeast 470 541 39,000  Level FlightAware UK
06:48AM 58.5410 3.4710 119° Southeast 485 558 39,000  Level FlightAware
06:49AM 58.4970 3.6200 119° Southeast 486 559 39,000  Level FlightAware
06:49AM 58.4490 3.7850 119° Southeast 486 559 39,000  Level FlightAware
06:50AM 58.4150 3.8980 120° Southeast 487 560 39,000  Level FlightAware
06:51AM 58.3650 4.0660 120° Southeast 486 559 39,000  Level FlightAware
06:51AM 58.3160 4.2280 120° Southeast 485 558 39,000  Level FlightAware
06:52AM 58.2800 4.3480 120° Southeast 484 557 39,000  Level FlightAware
06:53AM 58.2310 4.5100 120° Southeast 486 559 39,000  Level FlightAware
06:53AM 58.1860 4.6570 120° Southeast 487 560 39,000  Level FlightAware
06:54AM 58.1360 4.8170 121° Southeast 488 562 39,000  Level FlightAware
06:55AM 58.0890 4.9680 120° Southeast 490 564 39,000  Level FlightAware
06:55AM 58.0400 5.1260 120° Southeast 489 563 39,000  Level FlightAware
06:56AM 57.9940 5.2720 121° Southeast 487 560 39,000  Level FlightAware
06:57AM 57.9480 5.4180 121° Southeast 485 558 39,000  Level FlightAware
06:57AM 57.9060 5.5500 121° Southeast 484 557 39,000  Level FlightAware
06:58AM 57.8560 5.7060 121° Southeast 484 557 39,000  Level FlightAware
06:59AM 57.8100 5.8490 121° Southeast 485 558 39,000  Level FlightAware
06:59AM 57.7720 5.9650 122° Southeast 486 559 39,000  Level FlightAware
07:00AM 57.7170 6.1350 121° Southeast 487 560 39,000  Level FlightAware
07:01AM 57.6740 6.2630 122° Southeast 487 560 39,000  Level FlightAware
07:01AM 57.6200 6.4270 122° Southeast 486 559 39,000  Level FlightAware
07:02AM 57.5670 6.5860 122° Southeast 485 558 39,000  Level FlightAware
07:03AM 57.5210 6.7250 122° Southeast 486 559 39,000  Level FlightAware
07:04AM 57.4680 6.8830 122° Southeast 488 562 39,000  Level FlightAware
07:04AM 57.4310 6.9910 122° Southeast 488 562 39,000  Level FlightAware
07:05AM 57.3750 7.1560 122° Southeast 489 563 39,000  Level FlightAware
07:06AM 57.3280 7.2920 123° Southeast 488 562 39,000  Level FlightAware
07:06AM 57.2840 7.4200 122° Southeast 487 560 39,000  Level FlightAware
07:07AM 57.2310 7.5740 122° Southeast 486 559 39,000  Level FlightAware
07:08AM 57.1820 7.7160 122° Southeast 487 560 39,000  Level FlightAware
07:08AM 57.1380 7.8390 123° Southeast 488 562 39,000  Level FlightAware
07:09AM 57.0900 7.9770 123° Southeast 490 564 39,000  Level FlightAware
07:10AM 57.0340 8.1340 123° Southeast 490 564 39,000  Level FlightAware
07:10AM 56.9840 8.2740 123° Southeast 490 564 39,000  Level FlightAware
07:11AM 56.9320 8.4190 123° Southeast 489 563 39,000  Level FlightAware
07:12AM 56.8780 8.5700 123° Southeast 489 563 39,000  Level FlightAware
07:12AM 56.8280 8.7070 124° Southeast 488 562 39,000  Level FlightAware
07:13AM 56.7880 8.8160 124° Southeast 489 563 39,000 -600 Level FlightAware
07:14AM 56.7350 8.9600 124° Southeast 490 564 38,300 -1,080 Descending FlightAware
07:14AM 56.6790 9.1130 124° Southeast 497 572 37,500 -1,080 Descending FlightAware
07:15AM 56.6220 9.2650 124° Southeast 493 567 36,800 -1,680 Descending FlightAware
07:16AM 56.5730 9.3970 124° Southeast 488 562 35,200 -2,880 Descending FlightAware
07:16AM 56.5210 9.5350 124° Southeast 492 566 33,000 -3,060 Descending FlightAware
07:17AM 56.4630 9.6870 125° Southeast 489 563 30,900 -2,700 Descending FlightAware
07:18AM 56.4090 9.8340 124° Southeast 479 551 29,000 -2,520 Descending FlightAware
07:19AM 56.3630 9.9680 122° Southeast 469 540 27,400 -2,400 Descending FlightAware
07:19AM 56.3170 10.1000 122° Southeast 459 528 25,800 -2,400 Descending FlightAware
07:20AM 56.2680 10.2390 122° Southeast 449 517 24,100 -2,340 Descending FlightAware
07:21AM 56.2250 10.3630 122° Southeast 441 507 22,600 -2,220 Descending FlightAware
07:21AM 56.1770 10.4960 123° Southeast 429 494 21,000 -2,220 Descending FlightAware
07:22AM 56.1380 10.6050 123° Southeast 421 484 19,700 -2,160 Descending FlightAware
07:23AM 56.0970 10.7190 123° Southeast 414 476 18,300 -2,100 Descending FlightAware
07:23AM 56.0550 10.8350 123° Southeast 407 468 16,900 -1,920 Descending FlightAware
07:24AM 56.0130 10.9530 122° Southeast 396 456 15,700 -1,800 Descending FlightAware
07:25AM 55.9720 11.0650 123° Southeast 388 447 14,400 -1,800 Descending FlightAware
07:25AM 55.9320 11.1730 123° Southeast 379 436 13,300 -1,680 Descending FlightAware
07:26AM 55.8910 11.2860 123° Southeast 369 425 12,100 -1,680 Descending FlightAware
07:27AM 55.8540 11.3860 123° Southeast 364 419 11,000 -1,620 Descending FlightAware
07:27AM 55.8160 11.4870 124° Southeast 363 418 10,000 -1,500 Descending FlightAware
07:28AM 55.7910 11.5560 123° Southeast 358 412 9,300 -1,740 Descending FlightAware
07:28AM 55.7650 11.6250 124° Southeast 358 412 8,400 -1,980 Descending FlightAware
07:29AM 55.7430 11.6840 124° Southeast 354 407 7,600 -1,920 Descending FlightAware
07:29AM 55.7130 11.7640 124° Southeast 347 399 6,600 -1,860 Descending FlightAware
07:30AM 55.6940 11.8150 123° Southeast 343 395 5,900 -1,620 Descending FlightAware
07:30AM 55.6680 11.8830 124° Southeast 332 382 5,200 -1,320 Descending FlightAware
07:30AM 55.6540 11.9190 125° Southeast 327 376 4,900 -1,260 Descending FlightAware
07:31AM 55.6310 11.9810 123° Southeast 319 367 4,300 -1,080 Descending FlightAware
07:31AM 55.6080 12.0410 124° Southeast 301 346 3,900 -660 Descending FlightAware
07:32AM 55.5930 12.0810 124° Southeast 280 322 3,800 -180 Descending FlightAware
07:32AM 55.5740 12.1320 123° Southeast 267 307 3,800  Level FlightAware
07:33AM 55.5530 12.1850 125° Southeast 264 304 3,800  Level FlightAware
07:33AM 55.5340 12.2340 124° Southeast 253 291 3,800 -480 Level FlightAware
07:34AM 55.5170 12.2810 123° Southeast 244 281 3,400 -900 Descending FlightAware
07:34AM 55.5040 12.3140 125° Southeast 243 280 3,100 -1,140 Descending FlightAware
07:34AM 55.4980 12.3350 117° Southeast 241 277 2,800 -1,080 Descending FlightAware
07:34AM 55.4960 12.3650 97° East 238 274 2,600 -840 Descending FlightAware
07:35AM 55.4940 12.4180 94° East 216 249 2,200 -720 Descending FlightAware
07:36AM 55.5040 12.4760 73° East 183 211 1,800 -480 Descending FlightAware
07:36AM 55.5240 12.4990 33° Northeast 181 208 1,700 -600 Descending FlightAware
07:36AM 55.5390 12.5210 40° Northeast 170 196 1,300 -1,080 Descending FlightAware
07:37AM 55.5480 12.5360 43° Northeast 161 185 1,000 -1,020 Descending FlightAware
07:37AM 55.5620 12.5570 40° Northeast 145 167 600 -780 Descending FlightAware
07:38AM 55.5770 12.5800 41° Northeast 145 167 300 -720 Descending FlightAware
07:38AM 55.5840 12.5910 42° Northeast 145 167 100 -900 Descending FlightAware
07:38AM 55.5990 12.6150 42° Northeast 146 168 -180 Descending FlightAware
07:39AM 55.6110 12.6330 40° Northeast 52 60  Level FlightAware
07:40AM 55.6160 12.6410 42° Northeast 23 26  Level FlightAware
07:40AM 55.6170 12.6410 360° North 21 24  Level FlightAware
07:43AM 55.6167 12.6500 114° Southeast  Level FlightAware Approximate